createdAt,value
2023-04-09T00:01:33.488Z,25.33
2023-04-09T00:04:01.722Z,27.65
2023-04-09T00:06:29.666Z,20.70
2023-04-09T00:08:57.706Z,28.90
2023-04-09T00:11:25.776Z,28.15
2023-04-09T00:13:55.266Z,19.23
2023-04-09T00:16:23.198Z,22.92
2023-04-09T00:18:51.795Z,25.23
2023-04-09T00:21:20.557Z,19.27
2023-04-09T00:23:48.501Z,13.65
2023-04-09T00:26:16.474Z,16.40
2023-04-09T00:28:44.802Z,13.30
2023-04-09T00:31:14.468Z,15.95
2023-04-09T00:33:42.401Z,18.52
2023-04-09T00:36:10.321Z,14.65
2023-04-09T00:38:38.165Z,12.15
2023-04-09T00:41:06.425Z,15.77
2023-04-09T00:43:34.541Z,17.10
2023-04-09T00:46:02.917Z,16.63
2023-04-09T00:48:33.177Z,14.45
2023-04-09T00:51:01.519Z,13.40
2023-04-09T00:53:30.093Z,17.52
2023-04-09T00:55:58.143Z,11.48
2023-04-09T00:58:26.275Z,12.98
2023-04-09T01:00:54.165Z,15.15
2023-04-09T01:03:22.165Z,13.63
2023-04-09T01:06:00.600Z,16.52
2023-04-09T01:08:34.400Z,17.70
2023-04-09T01:11:12.105Z,12.85
2023-04-09T01:13:48.640Z,15.80
2023-04-09T01:16:19.797Z,18.45
2023-04-09T01:18:53.857Z,13.93
2023-04-09T01:21:32.102Z,13.68
2023-04-09T01:24:11.554Z,18.35
2023-04-09T01:26:58.765Z,11.68
2023-04-09T01:29:41.379Z,16.20
2023-04-09T01:32:16.095Z,14.95
2023-04-09T01:34:47.656Z,16.90
2023-04-09T01:37:19.446Z,18.38
2023-04-09T01:39:48.454Z,10.98
2023-04-09T01:42:17.819Z,15.27
2023-04-09T01:44:48.258Z,13.88
2023-04-09T01:47:17.376Z,19.38
2023-04-09T01:49:46.842Z,19.40
2023-04-09T01:52:15.529Z,15.77
2023-04-09T01:54:44.252Z,19.42
2023-04-09T01:57:12.314Z,12.68
2023-04-09T01:59:40.629Z,18.55
2023-04-09T02:02:19.046Z,19.00
2023-04-09T02:04:50.426Z,16.92
2023-04-09T02:07:30.035Z,21.83
2023-04-09T02:09:59.800Z,16.95
2023-04-09T02:12:28.391Z,19.45
2023-04-09T02:14:57.149Z,17.00
2023-04-09T02:17:27.159Z,19.90
2023-04-09T02:19:55.716Z,15.73
2023-04-09T02:22:23.821Z,15.35
2023-04-09T02:24:51.998Z,20.73
2023-04-09T02:27:21.618Z,17.95
2023-04-09T02:29:49.484Z,17.70
2023-04-09T02:32:19.687Z,16.30
2023-04-09T02:34:49.111Z,20.40
2023-04-09T02:37:18.516Z,18.83
2023-04-09T02:39:48.426Z,19.20
2023-04-09T02:42:16.691Z,26.25
2023-04-09T02:44:45.538Z,13.65
2023-04-09T02:47:15.920Z,14.98
2023-04-09T02:49:43.871Z,18.10
2023-04-09T02:52:13.674Z,13.75
2023-04-09T02:54:42.182Z,17.75
2023-04-09T02:57:10.448Z,16.50
2023-04-09T02:59:39.373Z,15.77
2023-04-09T03:02:07.897Z,46.80
2023-04-09T03:04:36.538Z,15.20
2023-04-09T03:07:05.093Z,7.82
2023-04-09T03:09:36.953Z,13.90
2023-04-09T03:12:05.395Z,21.60
2023-04-09T03:14:35.581Z,12.45
2023-04-09T03:17:10.719Z,13.55
2023-04-09T03:19:44.114Z,14.18
2023-04-09T03:22:14.562Z,22.13
2023-04-09T03:24:46.614Z,16.50
2023-04-09T03:27:15.019Z,18.17
2023-04-09T03:29:50.517Z,14.05
2023-04-09T03:32:22.156Z,18.05
2023-04-09T03:34:54.571Z,12.20
2023-04-09T03:37:30.299Z,12.75
2023-04-09T03:40:13.757Z,15.27
2023-04-09T03:42:48.562Z,14.23
2023-04-09T03:45:23.838Z,14.45
2023-04-09T03:47:57.931Z,37.30
2023-04-09T03:50:37.505Z,20.10
2023-04-09T03:53:11.676Z,13.40
2023-04-09T03:55:46.398Z,15.13
2023-04-09T03:58:24.509Z,33.17
2023-04-09T04:00:53.909Z,13.93
2023-04-09T04:03:52.857Z,20.33
2023-04-09T04:06:26.400Z,11.48
2023-04-09T04:09:03.696Z,12.00
2023-04-09T04:11:46.123Z,16.92
2023-04-09T04:14:17.030Z,13.68
2023-04-09T04:16:49.414Z,17.08
2023-04-09T04:19:23.498Z,20.23
2023-04-09T04:21:53.378Z,47.58
2023-04-09T04:24:21.518Z,22.75
2023-04-09T04:26:51.323Z,16.30
2023-04-09T04:29:21.388Z,22.88
2023-04-09T04:31:55.091Z,15.98
2023-04-09T04:34:25.988Z,19.23
2023-04-09T04:37:02.607Z,17.27
2023-04-09T04:39:34.308Z,28.48
2023-04-09T04:42:15.362Z,20.42
2023-04-09T04:44:44.619Z,20.63
2023-04-09T04:47:35.849Z,15.60
2023-04-09T04:50:13.414Z,27.52
2023-04-09T04:52:54.709Z,19.25
2023-04-09T04:55:30.765Z,16.90
2023-04-09T04:58:06.422Z,18.55
2023-04-09T05:00:48.979Z,18.25
2023-04-09T05:03:18.497Z,19.45
2023-04-09T05:06:21.814Z,16.95
2023-04-09T05:08:51.395Z,18.58
2023-04-09T05:11:21.366Z,14.73
2023-04-09T05:13:51.669Z,20.60
2023-04-09T05:16:22.224Z,35.88
2023-04-09T05:18:57.899Z,15.68
2023-04-09T05:21:26.420Z,19.33
2023-04-09T05:23:57.638Z,20.48
2023-04-09T05:26:26.065Z,18.65
2023-04-09T05:28:59.567Z,20.98
2023-04-09T05:31:27.995Z,14.77
2023-04-09T05:34:16.529Z,21.33
2023-04-09T05:36:49.325Z,24.38
2023-04-09T05:39:18.112Z,24.40
2023-04-09T05:41:46.905Z,26.15
2023-04-09T05:44:55.841Z,16.58
2023-04-09T05:47:25.460Z,37.63
2023-04-09T05:50:08.440Z,14.35
2023-04-09T05:52:36.683Z,13.35
2023-04-09T05:55:06.547Z,16.83
2023-04-09T05:57:45.484Z,18.63
2023-04-09T06:00:16.691Z,15.02
2023-04-09T06:02:44.912Z,13.75
2023-04-09T06:05:13.136Z,13.85
2023-04-09T06:07:41.265Z,13.10
2023-04-09T06:10:10.542Z,24.92
2023-04-09T06:12:38.609Z,10.00
2023-04-09T06:15:07.494Z,10.55
2023-04-09T06:17:36.884Z,23.17
2023-04-09T06:20:05.451Z,11.95
2023-04-09T06:22:33.773Z,13.23
2023-04-09T06:25:02.023Z,13.25
2023-04-09T06:27:30.022Z,20.90
2023-04-09T06:29:58.364Z,16.70
2023-04-09T06:32:26.510Z,16.38
2023-04-09T06:34:56.072Z,12.38
2023-04-09T06:37:24.666Z,13.60
2023-04-09T06:40:00.358Z,19.65
2023-04-09T06:42:29.008Z,20.13
2023-04-09T06:45:11.398Z,12.80
2023-04-09T06:47:39.781Z,10.23
2023-04-09T06:50:10.199Z,11.68
2023-04-09T06:52:38.185Z,17.95
2023-04-09T06:55:07.077Z,14.52
2023-04-09T06:57:35.287Z,15.90
2023-04-09T07:00:03.852Z,15.82
2023-04-09T07:02:31.982Z,13.00
2023-04-09T07:05:00.118Z,13.52
2023-04-09T07:07:29.372Z,12.05
2023-04-09T07:09:57.468Z,17.42
2023-04-09T07:12:29.036Z,13.70
2023-04-09T07:14:59.436Z,21.83
2023-04-09T07:17:27.494Z,13.52
2023-04-09T07:19:55.622Z,17.00
2023-04-09T07:22:24.466Z,17.92
2023-04-09T07:24:55.151Z,21.48
2023-04-09T07:27:23.608Z,20.60
2023-04-09T07:29:57.839Z,25.27
2023-04-09T07:32:28.097Z,25.33
2023-04-09T07:34:57.516Z,17.10
2023-04-09T07:37:25.842Z,28.08
2023-04-09T07:39:55.771Z,26.13
2023-04-09T07:42:24.116Z,21.55
2023-04-09T07:44:52.197Z,19.95
2023-04-09T07:47:20.400Z,29.88
2023-04-09T07:49:48.770Z,21.25
2023-04-09T07:52:17.329Z,20.00
2023-04-09T07:54:45.769Z,22.75
2023-04-09T07:57:17.435Z,22.73
2023-04-09T07:59:46.066Z,19.77
2023-04-09T08:02:15.400Z,20.70
2023-04-09T08:04:44.513Z,19.83
2023-04-09T08:07:13.333Z,23.60
2023-04-09T08:09:41.630Z,20.33
2023-04-09T08:12:10.451Z,19.38
2023-04-09T08:14:40.307Z,18.98
2023-04-09T08:17:08.941Z,21.77
2023-04-09T08:19:38.810Z,13.70
2023-04-09T08:22:08.529Z,12.45
2023-04-09T08:24:37.098Z,17.50
2023-04-09T08:27:05.645Z,14.48
2023-04-09T08:29:34.719Z,10.40
2023-04-09T08:32:04.425Z,15.10
2023-04-09T08:34:32.626Z,16.55
2023-04-09T08:37:01.050Z,16.05
2023-04-09T08:39:29.645Z,15.02
2023-04-09T08:42:01.913Z,15.18
2023-04-09T08:44:31.577Z,10.45
2023-04-09T08:47:01.435Z,10.10
2023-04-09T08:49:33.339Z,15.25
2023-04-09T08:52:09.028Z,16.33
2023-04-09T08:54:38.007Z,21.90
2023-04-09T08:57:07.937Z,15.95
2023-04-09T08:59:38.029Z,14.13
2023-04-09T09:02:10.179Z,16.73
2023-04-09T09:04:50.281Z,20.75
2023-04-09T09:07:18.771Z,22.13
2023-04-09T09:09:56.404Z,22.30
2023-04-09T09:12:35.273Z,20.73
2023-04-09T09:15:05.551Z,19.60
2023-04-09T09:17:56.412Z,20.98
2023-04-09T09:20:35.559Z,19.80
2023-04-09T09:23:03.636Z,20.02
2023-04-09T09:25:31.712Z,19.67
2023-04-09T09:28:09.897Z,26.08
2023-04-09T09:30:43.349Z,21.75
2023-04-09T09:33:12.258Z,21.52
2023-04-09T09:35:58.809Z,28.13
2023-04-09T09:38:27.264Z,23.45
2023-04-09T09:40:55.477Z,27.33
2023-04-09T09:43:23.321Z,24.88
2023-04-09T09:45:51.293Z,24.90
2023-04-09T09:48:19.138Z,24.25
2023-04-09T09:50:49.363Z,27.35
2023-04-09T09:53:23.170Z,20.25
2023-04-09T09:55:54.642Z,20.85
2023-04-09T09:58:26.249Z,22.92
2023-04-09T10:00:54.516Z,21.15
2023-04-09T10:03:26.288Z,31.58
2023-04-09T10:05:54.564Z,21.27
2023-04-09T10:08:25.381Z,30.98
2023-04-09T10:10:54.047Z,28.63
2023-04-09T10:13:29.814Z,23.73
2023-04-09T10:15:58.755Z,30.70
2023-04-09T10:18:26.724Z,26.50
2023-04-09T10:20:59.249Z,26.65
2023-04-09T10:23:38.680Z,25.30
2023-04-09T10:26:06.809Z,25.13
2023-04-09T10:28:34.897Z,24.80
2023-04-09T10:31:02.708Z,25.42
2023-04-09T10:33:30.449Z,25.83
2023-04-09T10:36:02.222Z,20.55
2023-04-09T10:38:40.549Z,20.15
2023-04-09T10:41:16.510Z,23.67
2023-04-09T10:43:44.565Z,20.13
2023-04-09T10:46:29.700Z,18.30
2023-04-09T10:49:11.298Z,25.88
2023-04-09T10:51:40.008Z,15.95
2023-04-09T10:54:45.791Z,18.13
2023-04-09T10:57:19.173Z,17.80
2023-04-09T10:59:48.411Z,14.88
2023-04-09T11:02:51.840Z,18.55
2023-04-09T11:05:26.353Z,13.70
2023-04-09T11:07:59.109Z,16.95
2023-04-09T11:10:28.464Z,12.15
2023-04-09T11:12:56.189Z,9.65
2023-04-09T11:15:23.979Z,12.80
2023-04-09T11:17:52.094Z,17.80
2023-04-09T11:20:22.276Z,15.52
2023-04-09T11:22:51.155Z,13.85
2023-04-09T11:25:20.706Z,18.52
2023-04-09T11:27:50.152Z,23.55
2023-04-09T11:30:18.193Z,12.98
2023-04-09T11:32:46.688Z,13.45
2023-04-09T11:35:15.969Z,13.98
2023-04-09T11:37:45.003Z,19.33
2023-04-09T11:40:17.750Z,19.20
2023-04-09T11:42:46.696Z,16.95
2023-04-09T11:45:17.161Z,16.17
2023-04-09T11:47:46.462Z,19.73
2023-04-09T11:50:15.792Z,18.83
2023-04-09T11:52:44.040Z,13.70
2023-04-09T11:55:12.269Z,15.85
2023-04-09T11:57:44.430Z,15.45
2023-04-09T12:00:14.135Z,14.07
2023-04-09T12:02:48.487Z,11.95
2023-04-09T12:05:23.218Z,22.35
2023-04-09T12:07:56.341Z,12.77
2023-04-09T12:10:28.526Z,14.82
2023-04-09T12:12:57.055Z,12.48
2023-04-09T12:15:26.270Z,12.23
2023-04-09T12:17:57.102Z,17.58
2023-04-09T12:20:29.785Z,12.90
2023-04-09T12:22:57.861Z,10.45
2023-04-09T12:25:25.620Z,12.60
2023-04-09T12:27:54.126Z,16.13
2023-04-09T12:30:21.979Z,8.20
2023-04-09T12:32:49.898Z,13.85
2023-04-09T12:35:19.394Z,20.13
2023-04-09T12:37:47.586Z,14.07
2023-04-09T12:40:15.735Z,18.00
2023-04-09T12:42:44.829Z,15.15
2023-04-09T12:45:14.832Z,11.13
2023-04-09T12:47:42.931Z,14.00
2023-04-09T12:50:12.340Z,19.88
2023-04-09T12:52:41.628Z,15.20
2023-04-09T12:55:10.685Z,19.73
2023-04-09T12:57:39.490Z,15.90
2023-04-09T13:00:09.736Z,12.07
2023-04-09T13:02:37.663Z,13.93
2023-04-09T13:05:06.190Z,19.63
2023-04-09T13:07:34.121Z,14.63
2023-04-09T13:10:03.385Z,12.55
2023-04-09T13:12:31.388Z,15.98
2023-04-09T13:14:59.325Z,18.15
2023-04-09T13:17:27.233Z,12.10
2023-04-09T13:19:55.152Z,15.68
2023-04-09T13:22:23.311Z,13.05
2023-04-09T13:24:51.216Z,11.73
2023-04-09T13:27:20.750Z,11.55
2023-04-09T13:29:48.653Z,13.82
2023-04-09T13:32:18.281Z,21.63
2023-04-09T13:34:46.341Z,12.43
2023-04-09T13:37:14.154Z,9.85
2023-04-09T13:39:42.105Z,14.80
2023-04-09T13:42:13.562Z,10.93
2023-04-09T13:44:45.624Z,13.70
2023-04-09T13:47:14.575Z,11.95
2023-04-09T13:49:43.284Z,13.23
2023-04-09T13:52:11.978Z,11.20
2023-04-09T13:54:39.961Z,14.13
2023-04-09T13:57:08.161Z,11.07
2023-04-09T13:59:36.235Z,10.52
2023-04-09T14:02:06.065Z,11.50
2023-04-09T14:04:34.072Z,6.63
2023-04-09T14:07:01.932Z,6.30
2023-04-09T14:09:30.240Z,11.20
2023-04-09T14:11:58.372Z,10.75
2023-04-09T14:14:26.231Z,14.02
2023-04-09T14:16:54.123Z,11.05
2023-04-09T14:19:24.230Z,8.07
2023-04-09T14:21:53.205Z,12.40
2023-04-09T14:24:23.213Z,10.35
2023-04-09T14:26:53.009Z,11.88
2023-04-09T14:29:21.966Z,13.02
2023-04-09T14:32:04.900Z,10.50
2023-04-09T14:34:34.157Z,11.63
2023-04-09T14:37:01.905Z,9.80
2023-04-09T14:39:32.973Z,9.48
2023-04-09T14:42:00.996Z,11.43
2023-04-09T14:44:29.195Z,11.18
2023-04-09T14:46:57.743Z,11.85
2023-04-09T14:49:25.906Z,8.38
2023-04-09T14:51:55.489Z,18.33
2023-04-09T14:54:23.497Z,9.50
2023-04-09T14:56:51.307Z,8.18
2023-04-09T14:59:19.078Z,9.20
2023-04-09T15:01:46.930Z,6.40
2023-04-09T15:04:14.718Z,11.73
2023-04-09T15:06:42.625Z,6.50
2023-04-09T15:09:12.159Z,16.25
2023-04-09T15:11:39.913Z,9.70
2023-04-09T15:14:07.630Z,11.05
2023-04-09T15:16:37.579Z,7.40
2023-04-09T15:19:05.623Z,14.20
2023-04-09T15:21:33.519Z,9.45
2023-04-09T15:24:01.411Z,9.77
2023-04-09T15:26:30.541Z,6.45
2023-04-09T15:29:02.754Z,5.53
2023-04-09T15:31:30.787Z,7.32
2023-04-09T15:33:58.709Z,7.25
2023-04-09T15:36:29.094Z,7.00
2023-04-09T15:38:59.648Z,9.02
2023-04-09T15:41:27.596Z,4.43
2023-04-09T15:44:00.317Z,7.80
2023-04-09T15:46:28.410Z,7.07
2023-04-09T15:48:56.286Z,14.23
2023-04-09T15:51:24.185Z,6.88
2023-04-09T15:53:52.087Z,2.30
2023-04-09T15:56:20.328Z,5.68
2023-04-09T15:58:48.264Z,6.32
2023-04-09T16:01:17.454Z,9.48
2023-04-09T16:03:50.602Z,3.30
2023-04-09T16:06:19.522Z,6.30
2023-04-09T16:08:47.411Z,7.30
2023-04-09T16:11:15.933Z,5.13
2023-04-09T16:13:43.818Z,6.07
2023-04-09T16:16:11.853Z,2.85
2023-04-09T16:18:41.137Z,4.93
2023-04-09T16:21:09.201Z,5.43
2023-04-09T16:23:37.166Z,6.85
2023-04-09T16:26:05.253Z,4.13
2023-04-09T16:28:33.096Z,4.43
2023-04-09T16:31:00.873Z,3.50
2023-04-09T16:33:29.023Z,7.15
2023-04-09T16:35:58.198Z,10.48
2023-04-09T16:38:27.571Z,6.07
2023-04-09T16:40:56.555Z,5.60
2023-04-09T16:43:24.803Z,7.22
2023-04-09T16:45:53.239Z,9.10
2023-04-09T16:48:21.475Z,5.10
2023-04-09T16:50:49.897Z,5.45
2023-04-09T16:53:19.291Z,7.78
2023-04-09T16:55:47.199Z,9.40
2023-04-09T16:58:15.339Z,7.53
2023-04-09T17:00:46.091Z,7.38
2023-04-09T17:03:15.166Z,8.32
2023-04-09T17:05:45.300Z,6.72
2023-04-09T17:08:13.238Z,5.90
2023-04-09T17:10:42.603Z,10.02
2023-04-09T17:13:10.449Z,7.43
2023-04-09T17:15:38.421Z,7.20
2023-04-09T17:18:06.639Z,5.57
2023-04-09T17:20:34.734Z,6.25
2023-04-09T17:23:02.735Z,8.45
2023-04-09T17:25:30.715Z,13.40
2023-04-09T17:28:01.698Z,11.80
2023-04-09T17:30:32.777Z,6.72
2023-04-09T17:33:01.040Z,9.00
2023-04-09T17:35:29.250Z,10.65
2023-04-09T17:37:57.233Z,8.77
2023-04-09T17:40:29.026Z,10.05
2023-04-09T17:42:57.887Z,11.40
2023-04-09T17:45:27.517Z,12.88
2023-04-09T17:47:55.731Z,9.48
2023-04-09T17:50:23.900Z,6.22
2023-04-09T17:52:52.021Z,12.63
2023-04-09T17:55:20.070Z,8.65
2023-04-09T17:57:48.336Z,8.68
2023-04-09T18:00:16.740Z,11.63
2023-04-09T18:02:52.630Z,8.75
2023-04-09T18:05:22.113Z,8.68
2023-04-09T18:07:50.833Z,9.95
2023-04-09T18:10:19.902Z,8.40
2023-04-09T18:12:48.124Z,12.73
2023-04-09T18:15:16.887Z,12.65
2023-04-09T18:17:44.778Z,8.32
2023-04-09T18:20:15.405Z,9.82
2023-04-09T18:22:43.421Z,8.75
2023-04-09T18:25:11.485Z,10.85
2023-04-09T18:27:39.301Z,13.18
2023-04-09T18:30:08.447Z,8.88
2023-04-09T18:32:36.342Z,11.63
2023-04-09T18:35:04.816Z,21.40
2023-04-09T18:37:34.758Z,18.20
2023-04-09T18:40:02.939Z,12.93
2023-04-09T18:42:30.855Z,9.40
2023-04-09T18:44:59.088Z,14.60
2023-04-09T18:47:26.926Z,15.82
2023-04-09T18:49:54.824Z,11.48
2023-04-09T18:52:22.640Z,14.80
2023-04-09T18:54:51.849Z,14.00
2023-04-09T18:57:22.222Z,11.52
2023-04-09T18:59:50.039Z,12.95
2023-04-09T19:02:18.677Z,12.10
2023-04-09T19:04:47.264Z,13.10
2023-04-09T19:07:15.242Z,14.43
2023-04-09T19:09:44.577Z,13.10
2023-04-09T19:12:13.784Z,12.32
2023-04-09T19:14:41.631Z,10.60
2023-04-09T19:17:09.810Z,15.82
2023-04-09T19:19:37.857Z,10.82
2023-04-09T19:22:07.352Z,11.45
2023-04-09T19:24:35.683Z,13.43
2023-04-09T19:27:09.513Z,15.63
2023-04-09T19:29:39.175Z,14.55
2023-04-09T19:32:09.259Z,18.95
2023-04-09T19:34:37.028Z,16.42
2023-04-09T19:37:04.877Z,11.65
2023-04-09T19:39:32.805Z,16.38
2023-04-09T19:42:00.845Z,14.68
2023-04-09T19:44:28.682Z,13.88
2023-04-09T19:46:57.862Z,8.82
2023-04-09T19:49:25.729Z,10.38
2023-04-09T19:51:53.607Z,17.73
2023-04-09T19:54:21.762Z,18.42
2023-04-09T19:56:49.656Z,20.15
2023-04-09T19:59:17.548Z,17.73
2023-04-09T20:01:45.440Z,15.20
2023-04-09T20:04:14.666Z,17.35
2023-04-09T20:06:43.797Z,15.60
2023-04-09T20:09:12.393Z,11.68
2023-04-09T20:11:40.411Z,6.68
2023-04-09T20:14:08.219Z,14.35
2023-04-09T20:16:35.994Z,11.20
2023-04-09T20:19:03.828Z,21.05
2023-04-09T20:21:32.973Z,13.00
2023-04-09T20:24:00.757Z,14.88
2023-04-09T20:26:28.744Z,19.55
2023-04-09T20:28:56.709Z,17.33
2023-04-09T20:31:27.523Z,18.65
2023-04-09T20:33:55.730Z,13.88
2023-04-09T20:36:23.662Z,11.30
2023-04-09T20:38:54.248Z,18.05
2023-04-09T20:41:22.253Z,14.02
2023-04-09T20:43:50.337Z,16.58
2023-04-09T20:46:20.355Z,12.60
2023-04-09T20:48:49.590Z,14.93
2023-04-09T20:51:17.413Z,14.48
2023-04-09T20:53:48.945Z,15.30
2023-04-09T20:56:18.358Z,19.17
2023-04-09T20:58:49.241Z,20.80
2023-04-09T21:01:17.077Z,13.68
2023-04-09T21:03:45.287Z,15.10
2023-04-09T21:06:13.484Z,17.63
2023-04-09T21:08:43.482Z,17.48
2023-04-09T21:11:11.417Z,13.82
2023-04-09T21:13:53.632Z,13.32
2023-04-09T21:16:23.077Z,15.98
2023-04-09T21:18:51.412Z,14.93
2023-04-09T21:21:19.424Z,22.88
2023-04-09T21:23:47.248Z,25.77
2023-04-09T21:26:15.236Z,23.52
2023-04-09T21:28:44.378Z,16.58
2023-04-09T21:31:12.249Z,17.05
2023-04-09T21:33:40.228Z,18.67
2023-04-09T21:36:08.542Z,18.08
2023-04-09T21:38:36.814Z,14.68
2023-04-09T21:41:05.026Z,18.48
2023-04-09T21:43:32.773Z,18.67
2023-04-09T21:46:03.094Z,22.98
2023-04-09T21:48:32.139Z,17.90
2023-04-09T21:51:00.056Z,17.27
2023-04-09T21:53:28.224Z,12.77
2023-04-09T21:55:56.244Z,23.65
2023-04-09T21:58:24.184Z,20.63
2023-04-09T22:00:52.137Z,21.75
2023-04-09T22:03:22.373Z,19.58
2023-04-09T22:05:50.692Z,16.80
2023-04-09T22:08:18.492Z,22.55
2023-04-09T22:10:46.377Z,17.02
2023-04-09T22:13:14.321Z,23.88
2023-04-09T22:15:42.785Z,21.25
2023-04-09T22:18:10.744Z,22.67
2023-04-09T22:20:40.011Z,15.80
2023-04-09T22:23:09.646Z,20.90
2023-04-09T22:25:37.547Z,15.93
2023-04-09T22:28:06.222Z,18.55
2023-04-09T22:30:34.096Z,16.08
2023-04-09T22:33:03.138Z,23.42
2023-04-09T22:35:31.168Z,22.67
2023-04-09T22:38:00.556Z,22.20
2023-04-09T22:40:28.629Z,21.10
2023-04-09T22:42:56.553Z,21.92
2023-04-09T22:45:27.843Z,21.90
2023-04-09T22:47:58.688Z,21.00
2023-04-09T22:50:27.839Z,23.42
2023-04-09T22:52:56.132Z,25.65
2023-04-09T22:55:25.556Z,31.33
2023-04-09T22:57:53.527Z,25.48
2023-04-09T23:00:22.164Z,25.58
2023-04-09T23:02:50.977Z,27.92
2023-04-09T23:05:19.110Z,29.08
2023-04-09T23:07:48.132Z,28.48
2023-04-09T23:10:17.454Z,28.92
2023-04-09T23:12:46.734Z,29.23
2023-04-09T23:15:14.558Z,28.90
2023-04-09T23:17:45.464Z,28.92
2023-04-09T23:20:14.912Z,30.00
2023-04-09T23:22:43.141Z,36.78
2023-04-09T23:25:12.225Z,28.92
2023-04-09T23:27:40.330Z,29.30
2023-04-09T23:30:16.545Z,33.90
2023-04-09T23:32:45.015Z,36.97
2023-04-09T23:35:13.192Z,37.60
2023-04-09T23:37:42.448Z,36.80
2023-04-09T23:40:11.606Z,34.03
2023-04-09T23:42:39.576Z,34.60
2023-04-09T23:45:09.937Z,33.22
2023-04-09T23:47:38.107Z,31.27
2023-04-09T23:50:08.360Z,31.75
2023-04-09T23:52:37.357Z,32.40
2023-04-09T23:55:07.453Z,30.63
2023-04-09T23:57:35.459Z,31.95
